Time;durP1;ratioP1;P1;durP2;ratioP2;P2;SDS_P1;SDS_P2;PMS_P1;PMS_P2;Temp;Humidity;BMP_temperature;BMP_pressure;BME280_temperature;BME280_humidity;BME280_pressure;Samples;Min_cycle;Max_cycle;Signal;HPM_P1;HPM_P2
2021/01/31 00:00:28;0.00;0.00;0.62;0.00;0.00;0.62;1.40;1.20;;;19.50;26.40;;;;;;2256081;61;20449;-63
2021/01/31 00:03:17;0.00;0.00;0.62;0.00;0.00;0.62;1.53;1.30;;;19.50;26.40;;;;;;2257203;61;20371;-61
2021/01/31 00:06:05;0.00;0.00;0.62;0.00;0.00;0.62;1.93;1.13;;;19.50;26.50;;;;;;2257435;61;20414;-64
2021/01/31 00:08:50;0.00;0.00;0.62;0.00;0.00;0.62;1.63;1.17;;;19.60;26.70;;;;;;2256571;61;20601;-61
2021/01/31 00:11:35;0.00;0.00;0.62;0.00;0.00;0.62;1.73;1.30;;;19.60;26.70;;;;;;2257430;61;20478;-60
2021/01/31 00:14:19;0.00;0.00;0.62;0.00;0.00;0.62;1.80;1.17;;;19.60;26.70;;;;;;2257743;61;20351;-62
2021/01/31 00:17:05;0.00;0.00;0.62;0.00;0.00;0.62;1.30;1.00;;;19.60;26.60;;;;;;2257101;61;20414;-62
2021/01/31 00:19:50;0.00;0.00;0.62;0.00;0.00;0.62;1.50;1.00;;;19.60;26.60;;;;;;2257347;61;20625;-62
2021/01/31 00:22:37;0.00;0.00;0.62;0.00;0.00;0.62;1.60;1.20;;;19.60;26.60;;;;;;2257047;61;20637;-63
2021/01/31 00:25:22;0.00;0.00;0.62;0.00;0.00;0.62;1.80;1.30;;;19.60;26.60;;;;;;2257145;61;20370;-62
2021/01/31 00:28:07;0.00;0.00;0.62;0.00;0.00;0.62;1.87;1.37;;;19.60;26.60;;;;;;2257385;61;20375;-62
2021/01/31 00:30:52;0.00;0.00;0.62;0.00;0.00;0.62;2.70;1.10;;;19.60;26.60;;;;;;2257217;61;20417;-62
2021/01/31 00:33:39;0.00;0.00;0.62;0.00;0.00;0.62;1.70;1.20;;;19.60;26.60;;;;;;2257070;61;20354;-62
2021/01/31 00:36:24;0.00;0.00;0.62;0.00;0.00;0.62;1.47;1.23;;;19.60;26.50;;;;;;2257257;61;20382;-62
2021/01/31 00:39:10;0.00;0.00;0.62;0.00;0.00;0.62;1.83;1.50;;;19.60;26.50;;;;;;2256575;61;20390;-62
2021/01/31 00:41:57;0.00;0.00;0.62;0.00;0.00;0.62;2.27;1.33;;;19.60;26.60;;;;;;2257018;61;20402;-61
2021/01/31 00:44:45;0.00;0.00;0.62;0.00;0.00;0.62;1.40;1.10;;;19.60;26.50;;;;;;2257393;61;20641;-61
2021/01/31 00:47:29;0.00;0.00;0.62;0.00;0.00;0.62;1.37;1.20;;;19.60;26.50;;;;;;2257023;61;20422;-62
2021/01/31 00:50:17;0.00;0.00;0.62;0.00;0.00;0.62;1.80;1.40;;;19.60;26.50;;;;;;2258008;61;20375;-62
2021/01/31 00:53:04;0.00;0.00;0.62;0.00;0.00;0.62;2.00;1.40;;;19.60;26.50;;;;;;2254735;61;20356;-63
2021/01/31 00:55:50;0.00;0.00;0.62;0.00;0.00;0.62;1.40;1.20;;;19.60;26.50;;;;;;2257749;61;20391;-62
2021/01/31 00:58:43;0.00;0.00;0.62;0.00;0.00;0.62;1.70;1.13;;;19.60;26.50;;;;;;2257878;61;20379;-62
2021/01/31 01:01:28;0.00;0.00;0.62;0.00;0.00;0.62;1.80;1.23;;;19.60;26.50;;;;;;2510151;53;20392;-62
2021/01/31 01:04:14;0.00;0.00;0.62;0.00;0.00;0.62;1.70;1.37;;;19.60;26.60;;;;;;2253743;61;20663;-62
2021/01/31 01:07:17;0.00;0.00;0.62;0.00;0.00;0.62;1.70;1.37;;;19.60;26.50;;;;;;2256082;61;20480;-62
2021/01/31 01:10:01;0.00;0.00;0.62;0.00;0.00;0.62;1.80;1.40;;;19.60;26.60;;;;;;2253859;61;20363;-62
2021/01/31 01:12:48;0.00;0.00;0.62;0.00;0.00;0.62;2.00;1.60;;;19.60;26.60;;;;;;2254220;61;20740;-62
2021/01/31 01:15:34;0.00;0.00;0.62;0.00;0.00;0.62;2.23;2.00;;;19.60;26.60;;;;;;2253293;61;20364;-61
2021/01/31 01:18:19;0.00;0.00;0.62;0.00;0.00;0.62;1.90;1.70;;;19.60;26.60;;;;;;2254048;61;20693;-63
2021/01/31 01:21:06;0.00;0.00;0.62;0.00;0.00;0.62;2.03;1.57;;;19.60;26.50;;;;;;2254061;61;20408;-63
2021/01/31 01:23:53;0.00;0.00;0.62;0.00;0.00;0.62;2.10;1.83;;;19.60;26.60;;;;;;2253744;61;20383;-62
2021/01/31 01:26:37;0.00;0.00;0.62;0.00;0.00;0.62;2.07;1.70;;;19.60;26.60;;;;;;2253938;61;20706;-62
2021/01/31 01:29:23;0.00;0.00;0.62;0.00;0.00;0.62;2.13;1.90;;;19.60;26.60;;;;;;2254061;61;20360;-61
2021/01/31 01:32:08;0.00;0.00;0.62;0.00;0.00;0.62;3.13;2.20;;;19.60;26.60;;;;;;2254031;61;20472;-62
2021/01/31 01:34:53;0.00;0.00;0.62;0.00;0.00;0.62;2.00;1.70;;;19.60;26.60;;;;;;2253730;61;20367;-62
2021/01/31 01:37:39;0.00;0.00;0.62;0.00;0.00;0.62;1.90;1.40;;;19.60;26.60;;;;;;2253544;61;20384;-62
2021/01/31 01:40:30;0.00;0.00;0.62;0.00;0.00;0.62;1.90;1.50;;;19.60;26.60;;;;;;2253936;61;20368;-61
2021/01/31 01:43:17;0.00;0.00;0.62;0.00;0.00;0.62;11.70;2.47;;;19.60;26.60;;;;;;2254048;61;20452;-61
2021/01/31 01:46:30;0.00;0.00;0.62;0.00;0.00;0.62;1.83;1.73;;;19.60;26.70;;;;;;2253631;61;20473;-62
2021/01/31 01:49:20;0.00;0.00;0.62;0.00;0.00;0.62;2.53;1.60;;;19.60;26.70;;;;;;2253743;61;20585;-63
2021/01/31 01:52:12;0.00;0.00;0.62;0.00;0.00;0.62;2.23;1.77;;;19.60;26.80;;;;;;2253873;61;20388;-63
2021/01/31 01:55:04;0.00;0.00;0.62;0.00;0.00;0.62;2.00;1.60;;;19.60;26.70;;;;;;2253843;61;20367;-62
2021/01/31 01:57:55;0.00;0.00;0.62;0.00;0.00;0.62;1.93;1.63;;;19.60;26.70;;;;;;2254020;61;20381;-63
2021/01/31 02:00:43;0.00;0.00;0.62;0.00;0.00;0.62;1.97;1.77;;;19.60;26.70;;;;;;2253614;61;20427;-62
2021/01/31 02:03:33;0.00;0.00;0.62;0.00;0.00;0.62;1.67;1.50;;;19.60;26.70;;;;;;2253578;61;20683;-61
2021/01/31 02:06:22;0.00;0.00;0.62;0.00;0.00;0.62;1.70;1.40;;;19.60;26.70;;;;;;2253969;61;20802;-61
2021/01/31 02:09:07;0.00;0.00;0.62;0.00;0.00;0.62;2.13;1.70;;;19.60;26.70;;;;;;2253608;61;20428;-63
2021/01/31 02:11:54;0.00;0.00;0.62;0.00;0.00;0.62;1.57;1.47;;;19.60;26.70;;;;;;2254065;61;20473;-62
2021/01/31 02:14:44;0.00;0.00;0.62;0.00;0.00;0.62;1.70;1.60;;;19.60;26.80;;;;;;2253384;61;20364;-63
2021/01/31 02:17:48;0.00;0.00;0.62;0.00;0.00;0.62;1.90;1.30;;;19.60;26.80;;;;;;2253625;61;20384;-62
2021/01/31 02:21:11;0.00;0.00;0.62;0.00;0.00;0.62;2.00;1.50;;;19.60;26.80;;;;;;2253959;61;20364;-62
2021/01/31 02:24:40;0.00;0.00;0.62;0.00;0.00;0.62;2.37;1.77;;;19.60;27.30;;;;;;2253571;61;20683;-63
2021/01/31 02:28:20;0.00;0.00;0.62;0.00;0.00;0.62;1.50;1.30;;;19.60;26.70;;;;;;2254397;61;20394;-60
2021/01/31 02:31:55;0.00;0.00;0.62;0.00;0.00;0.62;1.90;1.50;;;19.50;26.70;;;;;;2253511;61;20376;-61
2021/01/31 02:34:51;0.00;0.00;0.62;0.00;0.00;0.62;1.90;1.60;;;19.50;26.70;;;;;;2253919;61;20375;-62
2021/01/31 02:37:44;0.00;0.00;0.62;0.00;0.00;0.62;1.60;1.50;;;19.50;26.70;;;;;;2253280;61;20388;-62
2021/01/31 02:40:33;0.00;0.00;0.62;0.00;0.00;0.62;2.60;2.07;;;19.50;26.70;;;;;;2253759;61;20356;-59
2021/01/31 02:43:32;0.00;0.00;0.62;0.00;0.00;0.62;1.93;1.73;;;19.50;26.70;;;;;;2253790;61;20431;-63
2021/01/31 02:46:25;0.00;0.00;0.62;0.00;0.00;0.62;1.70;1.40;;;19.50;26.70;;;;;;2253625;61;20427;-63
2021/01/31 02:49:16;0.00;0.00;0.62;0.00;0.00;0.62;1.40;1.10;;;19.50;26.70;;;;;;2254032;61;20433;-63
2021/01/31 02:52:09;0.00;0.00;0.62;0.00;0.00;0.62;1.70;1.40;;;19.50;26.70;;;;;;2253047;61;20425;-61
2021/01/31 02:55:02;0.00;0.00;0.62;0.00;0.00;0.62;1.80;1.50;;;19.50;26.70;;;;;;2253228;61;20388;-61
2021/01/31 02:57:54;0.00;0.00;0.62;0.00;0.00;0.62;1.80;1.50;;;19.50;26.70;;;;;;2253768;61;20384;-62
2021/01/31 03:00:46;0.00;0.00;0.62;0.00;0.00;0.62;1.83;1.40;;;19.50;26.70;;;;;;2256506;61;20366;-62
2021/01/31 03:03:38;0.00;0.00;0.62;0.00;0.00;0.62;2.10;1.70;;;19.50;26.60;;;;;;2257852;61;20418;-62
2021/01/31 03:06:29;0.00;0.00;0.62;0.00;0.00;0.62;1.70;1.43;;;19.50;26.60;;;;;;2256693;61;20395;-63
2021/01/31 03:09:25;0.00;0.00;0.62;0.00;0.00;0.62;1.60;1.43;;;19.50;26.70;;;;;;2257812;61;20403;-63
2021/01/31 03:12:16;0.00;0.00;0.62;0.00;0.00;0.62;1.70;1.40;;;19.50;26.70;;;;;;2257808;61;20351;-62
2021/01/31 03:15:10;0.00;0.00;0.62;0.00;0.00;0.62;2.30;1.30;;;19.50;26.70;;;;;;2257255;61;20394;-62
2021/01/31 03:18:00;0.00;0.00;0.62;0.00;0.00;0.62;1.53;1.30;;;19.50;26.70;;;;;;2257855;61;20387;-62
2021/01/31 03:20:56;0.00;0.00;0.62;0.00;0.00;0.62;1.93;1.50;;;19.50;26.70;;;;;;2257494;61;20368;-62
2021/01/31 03:23:47;0.00;0.00;0.62;0.00;0.00;0.62;2.53;1.60;;;19.50;26.70;;;;;;2253662;61;20733;-61
2021/01/31 03:26:41;0.00;0.00;0.62;0.00;0.00;0.62;1.53;1.30;;;19.50;26.70;;;;;;2253769;61;20424;-62
2021/01/31 03:29:26;0.00;0.00;0.62;0.00;0.00;0.62;2.20;1.80;;;19.50;26.70;;;;;;2252846;61;20360;-63
2021/01/31 03:32:24;0.00;0.00;0.62;0.00;0.00;0.62;1.63;1.53;;;19.50;26.70;;;;;;2253797;61;20392;-63
2021/01/31 03:35:16;0.00;0.00;0.62;0.00;0.00;0.62;1.60;1.30;;;19.50;26.70;;;;;;2253425;61;20642;-63
2021/01/31 03:38:10;0.00;0.00;0.62;0.00;0.00;0.62;1.70;1.47;;;19.50;26.70;;;;;;2253460;61;20728;-62
2021/01/31 03:41:01;0.00;0.00;0.62;0.00;0.00;0.62;2.17;1.97;;;19.40;26.60;;;;;;2253501;61;20628;-63
2021/01/31 03:43:46;0.00;0.00;0.62;0.00;0.00;0.62;1.80;1.50;;;19.50;26.70;;;;;;2253243;61;20427;-62
2021/01/31 03:46:40;0.00;0.00;0.62;0.00;0.00;0.62;1.53;1.20;;;19.40;26.60;;;;;;2253651;61;20419;-62
2021/01/31 03:49:29;0.00;0.00;0.62;0.00;0.00;0.62;1.97;1.53;;;19.40;26.60;;;;;;2253543;61;20811;-62
2021/01/31 03:52:16;0.00;0.00;0.62;0.00;0.00;0.62;1.80;1.40;;;19.40;26.70;;;;;;2253393;61;20384;-61
2021/01/31 03:55:02;0.00;0.00;0.62;0.00;0.00;0.62;2.00;1.17;;;19.40;26.70;;;;;;2252861;61;20364;-63
2021/01/31 03:57:52;0.00;0.00;0.62;0.00;0.00;0.62;1.67;1.40;;;19.40;26.70;;;;;;2253343;61;20649;-61
2021/01/31 04:00:50;0.00;0.00;0.62;0.00;0.00;0.62;2.17;1.70;;;19.40;26.70;;;;;;2253804;61;20384;-62
2021/01/31 04:03:39;0.00;0.00;0.62;0.00;0.00;0.62;1.70;1.30;;;19.40;27.20;;;;;;2253699;61;20388;-63
2021/01/31 04:06:28;0.00;0.00;0.62;0.00;0.00;0.62;8.50;1.60;;;19.40;26.70;;;;;;2253157;61;20764;-62
2021/01/31 04:09:15;0.00;0.00;0.62;0.00;0.00;0.62;1.90;1.47;;;19.40;26.70;;;;;;2253474;61;20415;-62
2021/01/31 04:12:08;0.00;0.00;0.62;0.00;0.00;0.62;2.00;1.40;;;19.40;26.70;;;;;;2253764;61;20356;-62
2021/01/31 04:14:58;0.00;0.00;0.62;0.00;0.00;0.62;1.97;1.30;;;19.40;26.70;;;;;;2253123;61;20376;-61
2021/01/31 04:17:49;0.00;0.00;0.62;0.00;0.00;0.62;1.57;1.20;;;19.40;26.70;;;;;;2253575;61;20752;-63
2021/01/31 04:20:35;0.00;0.00;0.62;0.00;0.00;0.62;1.57;1.23;;;19.40;26.70;;;;;;2252599;61;20451;-62
2021/01/31 04:23:21;0.00;0.00;0.62;0.00;0.00;0.62;1.60;1.27;;;19.40;26.70;;;;;;2253419;61;20372;-62
2021/01/31 04:26:06;0.00;0.00;0.62;0.00;0.00;0.62;1.73;1.30;;;19.40;26.70;;;;;;2254284;61;20419;-63
2021/01/31 04:28:51;0.00;0.00;0.62;0.00;0.00;0.62;2.00;1.47;;;19.40;26.70;;;;;;2253502;61;20360;-62
2021/01/31 04:31:37;0.00;0.00;0.62;0.00;0.00;0.62;1.80;1.47;;;19.40;26.70;;;;;;2253866;61;20707;-62
2021/01/31 04:34:22;0.00;0.00;0.62;0.00;0.00;0.62;1.60;1.00;;;19.40;26.70;;;;;;2251056;61;20364;-63
2021/01/31 04:37:07;0.00;0.00;0.62;0.00;0.00;0.62;1.57;1.13;;;19.40;26.70;;;;;;2253990;61;20384;-62
2021/01/31 04:39:52;0.00;0.00;0.62;0.00;0.00;0.62;2.07;1.40;;;19.40;27.20;;;;;;2254068;61;20395;-62
2021/01/31 04:42:39;0.00;0.00;0.62;0.00;0.00;0.62;2.10;1.50;;;19.40;26.70;;;;;;2253732;61;20442;-63
2021/01/31 04:45:24;0.00;0.00;0.62;0.00;0.00;0.62;1.80;1.53;;;19.40;26.70;;;;;;2253552;61;20629;-63
2021/01/31 04:48:24;0.00;0.00;0.62;0.00;0.00;0.62;1.57;1.30;;;19.40;26.70;;;;;;2254167;61;20364;-61
2021/01/31 04:51:27;0.00;0.00;0.62;0.00;0.00;0.62;1.50;1.10;;;19.40;26.70;;;;;;2253609;61;20432;-62
2021/01/31 04:54:27;0.00;0.00;0.62;0.00;0.00;0.62;2.90;1.30;;;19.40;26.70;;;;;;2254064;61;20357;-62
2021/01/31 04:57:14;0.00;0.00;0.62;0.00;0.00;0.62;1.50;1.40;;;19.40;26.70;;;;;;2254014;61;20387;-62
2021/01/31 05:00:04;0.00;0.00;0.62;0.00;0.00;0.62;1.90;1.63;;;19.40;26.70;;;;;;2255916;61;20444;-63
2021/01/31 05:02:56;0.00;0.00;0.62;0.00;0.00;0.62;1.90;1.53;;;19.40;26.70;;;;;;2258049;61;20394;-62
2021/01/31 05:05:50;0.00;0.00;0.62;0.00;0.00;0.62;1.73;1.20;;;19.30;26.70;;;;;;2257428;61;20366;-63
2021/01/31 05:08:37;0.00;0.00;0.62;0.00;0.00;0.62;1.77;1.30;;;19.30;26.70;;;;;;2257844;61;20434;-61
2021/01/31 05:11:28;0.00;0.00;0.62;0.00;0.00;0.62;2.23;1.93;;;19.30;26.70;;;;;;2257646;61;20455;-63
2021/01/31 05:14:20;0.00;0.00;0.62;0.00;0.00;0.62;1.93;1.20;;;19.30;26.70;;;;;;2257917;61;20359;-62
2021/01/31 05:17:05;0.00;0.00;0.62;0.00;0.00;0.62;2.00;1.60;;;19.30;27.20;;;;;;2258038;61;20791;-63
2021/01/31 05:19:50;0.00;0.00;0.62;0.00;0.00;0.62;1.60;1.30;;;19.30;26.70;;;;;;2257082;61;20778;-62
2021/01/31 05:22:44;0.00;0.00;0.62;0.00;0.00;0.62;1.50;1.20;;;19.30;26.70;;;;;;2255149;61;20511;-63
2021/01/31 05:25:35;0.00;0.00;0.62;0.00;0.00;0.62;2.27;1.40;;;19.30;26.70;;;;;;2253944;61;20399;-61
2021/01/31 05:28:23;0.00;0.00;0.62;0.00;0.00;0.62;1.53;1.40;;;19.30;26.70;;;;;;2253371;61;20360;-64
2021/01/31 05:31:12;0.00;0.00;0.62;0.00;0.00;0.62;1.87;1.30;;;19.30;26.70;;;;;;2254131;61;20632;-62
2021/01/31 05:33:59;0.00;0.00;0.62;0.00;0.00;0.62;1.50;1.27;;;19.30;26.70;;;;;;2253852;61;20408;-62
2021/01/31 05:36:59;0.00;0.00;0.62;0.00;0.00;0.62;1.70;1.20;;;19.30;26.70;;;;;;2254042;61;20387;-63
2021/01/31 05:39:47;0.00;0.00;0.62;0.00;0.00;0.62;2.03;1.40;;;19.30;26.70;;;;;;2254237;61;20733;-63
2021/01/31 05:42:39;0.00;0.00;0.62;0.00;0.00;0.62;1.50;1.23;;;19.30;26.70;;;;;;2253408;61;20384;-63
2021/01/31 05:45:34;0.00;0.00;0.62;0.00;0.00;0.62;1.93;1.50;;;19.30;27.20;;;;;;2253792;61;20484;-62
2021/01/31 05:48:33;0.00;0.00;0.62;0.00;0.00;0.62;1.80;1.60;;;19.30;26.70;;;;;;2253886;61;20387;-61
2021/01/31 05:51:19;0.00;0.00;0.62;0.00;0.00;0.62;2.07;1.40;;;19.30;26.70;;;;;;2253432;61;20601;-62
2021/01/31 05:54:27;0.00;0.00;0.62;0.00;0.00;0.62;1.47;1.10;;;19.30;26.70;;;;;;2253882;61;20408;-63
2021/01/31 05:57:23;0.00;0.00;0.62;0.00;0.00;0.62;1.70;1.20;;;19.30;27.30;;;;;;2252812;61;20372;-61
2021/01/31 06:00:23;0.00;0.00;0.62;0.00;0.00;0.62;1.60;1.30;;;19.30;26.70;;;;;;2253836;61;20566;-62
2021/01/31 06:03:10;0.00;0.00;0.62;0.00;0.00;0.62;1.87;1.30;;;19.30;26.70;;;;;;2253426;61;20372;-62
2021/01/31 06:06:15;0.00;0.00;0.62;0.00;0.00;0.62;1.53;1.30;;;19.20;26.60;;;;;;2253575;61;20860;-63
2021/01/31 06:09:13;0.00;0.00;0.62;0.00;0.00;0.62;1.97;1.60;;;19.20;26.70;;;;;;2254068;61;20363;-62
2021/01/31 06:12:07;0.00;0.00;0.62;0.00;0.00;0.62;1.50;1.10;;;19.30;26.70;;;;;;2252881;61;20731;-63
2021/01/31 06:15:06;0.00;0.00;0.62;0.00;0.00;0.62;1.47;1.10;;;19.20;26.70;;;;;;2253771;61;20388;-63
2021/01/31 06:17:57;0.00;0.00;0.62;0.00;0.00;0.62;1.77;1.37;;;19.20;26.70;;;;;;2253779;61;20415;-61
2021/01/31 06:20:43;0.00;0.00;0.62;0.00;0.00;0.62;1.70;1.30;;;19.20;26.70;;;;;;2253496;61;20709;-61
2021/01/31 06:23:37;0.00;0.00;0.62;0.00;0.00;0.62;2.50;1.63;;;19.20;26.70;;;;;;2769490;45;20440;-62
2021/01/31 06:26:23;0.00;0.00;0.62;0.00;0.00;0.62;2.10;1.20;;;19.20;26.70;;;;;;2253171;61;20419;-61
2021/01/31 06:29:20;0.00;0.00;0.62;0.00;0.00;0.62;1.50;1.10;;;19.20;26.70;;;;;;2256213;61;20392;-61
2021/01/31 06:32:11;0.00;0.00;0.62;0.00;0.00;0.62;1.93;1.40;;;19.20;26.70;;;;;;2253728;61;20360;-62
2021/01/31 06:35:01;0.00;0.00;0.62;0.00;0.00;0.62;2.10;1.33;;;19.20;26.70;;;;;;2253153;61;20425;-63
2021/01/31 06:38:10;0.00;0.00;0.62;0.00;0.00;0.62;1.90;1.30;;;19.20;26.70;;;;;;2253574;61;20407;-63
2021/01/31 06:41:09;0.00;0.00;0.62;0.00;0.00;0.62;1.70;1.17;;;19.20;26.70;;;;;;2252963;61;20437;-63
2021/01/31 06:44:08;0.00;0.00;0.62;0.00;0.00;0.62;2.07;1.43;;;19.20;26.70;;;;;;2253792;61;20444;-63
2021/01/31 06:47:10;0.00;0.00;0.62;0.00;0.00;0.62;1.90;1.23;;;19.20;26.70;;;;;;2253495;61;20619;-61
2021/01/31 06:50:08;0.00;0.00;0.62;0.00;0.00;0.62;2.40;1.17;;;19.20;26.70;;;;;;2253479;61;20371;-62
2021/01/31 06:53:09;0.00;0.00;0.62;0.00;0.00;0.62;1.33;0.90;;;19.10;26.60;;;;;;2253208;61;20403;-62
2021/01/31 06:56:34;0.00;0.00;0.62;0.00;0.00;0.62;1.47;1.27;;;19.20;26.70;;;;;;2252999;61;20705;-63
2021/01/31 06:59:39;0.00;0.00;0.62;0.00;0.00;0.62;1.40;1.03;;;19.20;26.70;;;;;;2253957;61;20812;-61
2021/01/31 07:03:11;0.00;0.00;0.62;0.00;0.00;0.62;1.73;1.03;;;19.20;26.70;;;;;;2257642;61;20371;-62
2021/01/31 07:06:16;0.00;0.00;0.62;0.00;0.00;0.62;2.00;1.20;;;19.20;26.70;;;;;;2253704;61;20778;-61
2021/01/31 07:09:29;0.00;0.00;0.62;0.00;0.00;0.62;1.50;1.00;;;19.20;26.70;;;;;;2257243;61;20362;-61
2021/01/31 07:12:24;0.00;0.00;0.62;0.00;0.00;0.62;1.63;1.33;;;19.10;26.70;;;;;;2257312;61;20363;-60
2021/01/31 07:15:14;0.00;0.00;0.62;0.00;0.00;0.62;1.40;1.20;;;19.10;26.70;;;;;;2257557;61;20394;-62
2021/01/31 07:18:06;0.00;0.00;0.62;0.00;0.00;0.62;1.70;1.10;;;19.10;26.70;;;;;;2257321;61;20447;-62
2021/01/31 07:20:56;0.00;0.00;0.62;0.00;0.00;0.62;1.70;1.03;;;19.10;26.70;;;;;;2257625;61;20780;-63
2021/01/31 07:23:46;0.00;0.00;0.62;0.00;0.00;0.62;1.70;1.17;;;19.10;26.70;;;;;;2253734;61;20384;-62
2021/01/31 07:26:38;0.00;0.00;0.62;0.00;0.00;0.62;1.50;1.27;;;19.10;26.70;;;;;;2253211;61;20380;-61
2021/01/31 07:29:40;0.00;0.00;0.62;0.00;0.00;0.62;1.67;1.20;;;19.10;26.70;;;;;;2253342;61;20763;-63
2021/01/31 07:32:32;0.00;0.00;0.62;0.00;0.00;0.62;2.07;1.37;;;19.10;26.70;;;;;;2253334;61;20356;-61
2021/01/31 07:35:22;0.00;0.00;0.62;0.00;0.00;0.62;1.63;1.20;;;19.10;26.70;;;;;;2253618;61;20388;-62
2021/01/31 07:38:15;0.00;0.00;0.62;0.00;0.00;0.62;1.67;1.40;;;19.10;26.70;;;;;;2253856;61;20475;-61
2021/01/31 07:41:02;0.00;0.00;0.62;0.00;0.00;0.62;1.83;1.30;;;19.10;26.70;;;;;;2253125;61;20428;-64
2021/01/31 07:43:58;0.00;0.00;0.62;0.00;0.00;0.62;1.73;1.20;;;19.10;26.70;;;;;;2252971;61;20431;-62
2021/01/31 07:46:43;0.00;0.00;0.62;0.00;0.00;0.62;2.30;1.83;;;19.10;26.70;;;;;;2253020;61;20376;-61
2021/01/31 07:50:06;0.00;0.00;0.62;0.00;0.00;0.62;1.90;1.47;;;19.10;26.70;;;;;;2253228;61;20622;-62
2021/01/31 07:52:55;0.00;0.00;0.62;0.00;0.00;0.62;1.60;1.50;;;19.10;26.60;;;;;;2253336;61;20364;-62
2021/01/31 07:55:42;0.00;0.00;0.62;0.00;0.00;0.62;1.50;1.20;;;19.10;26.70;;;;;;2252928;61;20582;-63
2021/01/31 07:58:38;0.00;0.00;0.62;0.00;0.00;0.62;1.40;1.10;;;19.10;26.60;;;;;;2253404;61;20538;-62
2021/01/31 08:01:46;0.00;0.00;0.62;0.00;0.00;0.62;1.43;1.10;;;19.10;26.70;;;;;;2253598;61;20379;-63
2021/01/31 08:04:47;0.00;0.00;0.62;0.00;0.00;0.62;1.60;1.27;;;19.10;26.60;;;;;;2253292;61;20359;-62
2021/01/31 08:08:04;0.00;0.00;0.62;0.00;0.00;0.62;1.87;1.50;;;19.10;26.70;;;;;;2253647;61;20634;-63
2021/01/31 08:10:50;0.00;0.00;0.62;0.00;0.00;0.62;1.60;1.20;;;19.10;26.70;;;;;;2253091;61;20348;-63
2021/01/31 08:13:41;0.00;0.00;0.62;0.00;0.00;0.62;1.53;1.37;;;19.10;26.60;;;;;;2253450;61;20392;-62
2021/01/31 08:16:53;0.00;0.00;0.62;0.00;0.00;0.62;1.40;1.20;;;19.10;26.70;;;;;;2253462;61;20613;-62
2021/01/31 08:19:38;0.00;0.00;0.62;0.00;0.00;0.62;1.40;1.13;;;19.10;26.70;;;;;;2253424;61;20360;-63
2021/01/31 08:22:35;0.00;0.00;0.62;0.00;0.00;0.62;1.93;1.30;;;19.10;26.70;;;;;;2256341;61;20419;-62
2021/01/31 08:25:24;0.00;0.00;0.62;0.00;0.00;0.62;1.93;1.60;;;19.10;26.70;;;;;;2256963;61;20576;-59
2021/01/31 08:28:16;0.00;0.00;0.62;0.00;0.00;0.62;1.60;1.20;;;19.10;26.70;;;;;;2257353;61;20368;-62
2021/01/31 08:31:15;0.00;0.00;0.62;0.00;0.00;0.62;2.17;1.47;;;19.10;26.70;;;;;;2257555;61;20402;-61
2021/01/31 08:34:02;0.00;0.00;0.62;0.00;0.00;0.62;2.07;1.50;;;19.10;26.70;;;;;;2257361;61;20580;-61
2021/01/31 08:36:47;0.00;0.00;0.62;0.00;0.00;0.62;1.57;1.20;;;19.20;26.80;;;;;;2257253;61;20379;-63
2021/01/31 08:39:37;0.00;0.00;0.62;0.00;0.00;0.62;1.40;1.10;;;19.20;26.80;;;;;;2256368;61;20402;-63
2021/01/31 08:42:23;0.00;0.00;0.62;0.00;0.00;0.62;1.80;1.20;;;19.20;26.80;;;;;;2257431;61;20460;-64
2021/01/31 08:45:09;0.00;0.00;0.62;0.00;0.00;0.62;1.60;1.13;;;19.20;26.70;;;;;;2257493;61;20483;-63
2021/01/31 08:47:54;0.00;0.00;0.62;0.00;0.00;0.62;1.27;1.00;;;19.20;26.80;;;;;;2257080;61;20383;-61
2021/01/31 08:50:39;0.00;0.00;0.62;0.00;0.00;0.62;1.83;1.40;;;19.20;26.80;;;;;;2257467;61;20466;-63
2021/01/31 08:53:23;0.00;0.00;0.62;0.00;0.00;0.62;1.97;1.43;;;19.30;26.80;;;;;;2257463;61;20486;-66
2021/01/31 08:56:21;0.00;0.00;0.62;0.00;0.00;0.62;2.10;1.70;;;19.30;26.90;;;;;;2257014;61;20374;-60
2021/01/31 08:59:11;0.00;0.00;0.62;0.00;0.00;0.62;1.70;1.20;;;19.30;26.90;;;;;;2256453;61;20359;-62
2021/01/31 09:02:18;0.00;0.00;0.62;0.00;0.00;0.62;1.90;1.20;;;19.30;26.90;;;;;;2252962;61;20764;-58
2021/01/31 09:05:13;0.00;0.00;0.62;0.00;0.00;0.62;1.40;1.13;;;19.40;27.00;;;;;;2253207;61;20379;-62
2021/01/31 09:08:05;0.00;0.00;0.62;0.00;0.00;0.62;1.40;1.07;;;19.40;27.00;;;;;;2253331;61;20451;-61
2021/01/31 09:10:49;0.00;0.00;0.62;0.00;0.00;0.62;8.80;1.57;;;19.40;27.00;;;;;;2252876;61;20368;-62
2021/01/31 09:13:38;0.00;0.00;0.62;0.00;0.00;0.62;1.47;1.10;;;19.40;27.00;;;;;;2254131;61;20649;-62
2021/01/31 09:16:25;0.00;0.00;0.62;0.00;0.00;0.62;1.50;1.20;;;19.50;27.00;;;;;;2253278;61;20779;-62
2021/01/31 09:19:20;0.00;0.00;0.62;0.00;0.00;0.62;1.40;1.17;;;19.60;27.10;;;;;;2253593;61;20367;-60
2021/01/31 09:22:12;0.00;0.00;0.62;0.00;0.00;0.62;1.30;1.03;;;19.60;27.10;;;;;;2256394;61;20410;-61
2021/01/31 09:25:03;0.00;0.00;0.62;0.00;0.00;0.62;1.60;1.30;;;19.60;27.00;;;;;;2257594;61;20368;-60
2021/01/31 09:28:00;0.00;0.00;0.62;0.00;0.00;0.62;2.10;1.73;;;19.70;27.10;;;;;;2257952;61;20414;-60
2021/01/31 09:30:47;0.00;0.00;0.62;0.00;0.00;0.62;1.90;1.20;;;19.70;27.00;;;;;;2257280;61;20432;-59
2021/01/31 09:33:38;0.00;0.00;0.62;0.00;0.00;0.62;1.50;1.20;;;19.80;27.00;;;;;;2258355;61;20434;-56
2021/01/31 09:36:26;0.00;0.00;0.62;0.00;0.00;0.62;1.93;1.33;;;19.80;27.00;;;;;;2258350;61;20735;-62
2021/01/31 09:39:12;0.00;0.00;0.62;0.00;0.00;0.62;2.67;1.40;;;19.80;27.00;;;;;;2257340;61;20795;-59
2021/01/31 09:41:58;0.00;0.00;0.62;0.00;0.00;0.62;1.77;1.17;;;19.90;27.00;;;;;;2258037;61;20363;-62
2021/01/31 09:44:49;0.00;0.00;0.62;0.00;0.00;0.62;1.87;1.30;;;19.90;27.00;;;;;;2257801;61;21016;-61
2021/01/31 09:47:34;0.00;0.00;0.62;0.00;0.00;0.62;1.37;1.10;;;19.90;26.90;;;;;;2257797;61;20438;-61
2021/01/31 09:50:19;0.00;0.00;0.62;0.00;0.00;0.62;2.77;1.70;;;20.00;27.00;;;;;;2258002;61;20358;-63
2021/01/31 09:53:05;0.00;0.00;0.62;0.00;0.00;0.62;1.47;1.27;;;20.10;27.00;;;;;;2257616;61;20379;-60
2021/01/31 09:55:51;0.00;0.00;0.62;0.00;0.00;0.62;2.43;1.50;;;20.00;26.90;;;;;;2257895;61;20475;-60
2021/01/31 09:58:44;0.00;0.00;0.62;0.00;0.00;0.62;1.87;1.53;;;20.10;26.90;;;;;;2257686;61;20371;-61
2021/01/31 10:01:31;0.00;0.00;0.62;0.00;0.00;0.62;2.43;1.83;;;20.20;26.90;;;;;;2257372;61;20360;-59
2021/01/31 10:04:25;0.00;0.00;0.62;0.00;0.00;0.62;2.10;1.40;;;20.20;26.90;;;;;;2257704;61;20371;-60
2021/01/31 10:07:12;0.00;0.00;0.62;0.00;0.00;0.62;2.37;1.53;;;20.20;26.70;;;;;;2257844;61;20602;-63
2021/01/31 10:09:57;0.00;0.00;0.62;0.00;0.00;0.62;1.83;1.23;;;20.30;27.30;;;;;;2257619;61;20351;-61
2021/01/31 10:12:44;0.00;0.00;0.62;0.00;0.00;0.62;1.73;1.30;;;20.30;26.80;;;;;;2257873;61;20360;-63
2021/01/31 10:15:36;0.00;0.00;0.62;0.00;0.00;0.62;2.03;1.47;;;20.30;26.80;;;;;;2257002;61;20367;-59
2021/01/31 10:18:32;0.00;0.00;0.62;0.00;0.00;0.62;1.60;1.30;;;20.40;26.90;;;;;;2257973;61;20778;-60
2021/01/31 10:21:32;0.00;0.00;0.62;0.00;0.00;0.62;1.40;1.10;;;20.40;26.90;;;;;;2258097;61;20362;-61
2021/01/31 10:24:30;0.00;0.00;0.62;0.00;0.00;0.62;1.43;1.20;;;20.40;26.90;;;;;;2257582;61;20576;-62
2021/01/31 10:27:28;0.00;0.00;0.62;0.00;0.00;0.62;1.63;1.40;;;20.50;26.90;;;;;;2257783;61;20383;-61
2021/01/31 10:30:25;0.00;0.00;0.62;0.00;0.00;0.62;1.87;1.10;;;20.60;27.50;;;;;;2257641;61;20815;-60
2021/01/31 10:33:40;0.00;0.00;0.62;0.00;0.00;0.62;2.10;1.53;;;20.60;27.00;;;;;;2257610;61;20359;-66
2021/01/31 10:36:36;0.00;0.00;0.62;0.00;0.00;0.62;1.70;1.20;;;20.70;27.10;;;;;;2257725;61;20411;-58
2021/01/31 10:39:25;0.00;0.00;0.62;0.00;0.00;0.62;1.40;1.07;;;20.70;27.10;;;;;;2257633;61;20367;-59
2021/01/31 10:42:11;0.00;0.00;0.62;0.00;0.00;0.62;1.77;1.20;;;20.70;27.10;;;;;;2257734;61;20379;-63
2021/01/31 10:45:04;0.00;0.00;0.62;0.00;0.00;0.62;1.60;1.20;;;20.80;27.20;;;;;;2257310;61;20395;-60
2021/01/31 10:47:51;0.00;0.00;0.62;0.00;0.00;0.62;1.77;1.30;;;20.90;27.20;;;;;;2256510;58;20510;-60
2021/01/31 10:50:37;0.00;0.00;0.62;0.00;0.00;0.62;1.50;1.20;;;20.90;27.20;;;;;;2255396;61;20374;-61
2021/01/31 10:53:21;0.00;0.00;0.62;0.00;0.00;0.62;1.57;1.23;;;21.00;27.30;;;;;;2257627;61;20375;-61
2021/01/31 10:56:06;0.00;0.00;0.62;0.00;0.00;0.62;1.67;1.40;;;21.00;27.30;;;;;;2253520;61;20395;-61
2021/01/31 10:58:52;0.00;0.00;0.62;0.00;0.00;0.62;1.40;1.30;;;21.10;27.40;;;;;;2254029;61;20379;-61
2021/01/31 11:01:37;0.00;0.00;0.62;0.00;0.00;0.62;1.63;1.00;;;21.10;27.40;;;;;;2255643;61;20372;-61
2021/01/31 11:04:22;0.00;0.00;0.62;0.00;0.00;0.62;1.30;0.90;;;21.20;27.40;;;;;;2326312;58;20350;-62
2021/01/31 11:07:08;0.00;0.00;0.62;0.00;0.00;0.62;1.63;1.20;;;21.30;27.30;;;;;;2253118;61;20391;-62
2021/01/31 11:09:53;0.00;0.00;0.62;0.00;0.00;0.62;1.73;1.50;;;21.30;27.30;;;;;;2256171;61;20394;-63
2021/01/31 11:12:37;0.00;0.00;0.62;0.00;0.00;0.62;1.73;1.30;;;21.40;27.10;;;;;;2257633;61;20583;-62
2021/01/31 11:15:22;0.00;0.00;0.62;0.00;0.00;0.62;2.70;1.40;;;21.50;27.10;;;;;;2257522;61;20394;-60
2021/01/31 11:18:08;0.00;0.00;0.62;0.00;0.00;0.62;1.50;1.27;;;21.50;27.10;;;;;;2257738;61;20355;-62